Time;durP1;ratioP1;P1;durP2;ratioP2;P2;SDS_P1;SDS_P2;PMS_P1;PMS_P2;Temp;Humidity;BMP_temperature;BMP_pressure;BME280_temperature;BME280_humidity;BME280_pressure;Samples;Min_cycle;Max_cycle;Signal;HPM_P1;HPM_P2
2022/05/29 00:00:39;;;;;;;;;;;;;;;;;;5071902;28;19919;-69
2022/05/29 00:03:24;;;;;;;;;;;;;;;;;;5072141;28;19920;-69
2022/05/29 00:06:10;;;;;;;;;;;;;;;;;;5076670;28;19950;-70
2022/05/29 00:08:55;;;;;;;;;;;;;;;;;;5073678;28;19954;-72
2022/05/29 00:11:41;;;;;;;;;;;;;;;;;;5070961;28;20402;-71
2022/05/29 00:14:26;;;;;;;;;;;;;;;;;;5071598;28;19909;-69
2022/05/29 00:17:12;;;;;;;;;;;;;;;;;;5070647;28;19908;-69
2022/05/29 00:19:57;;;;;;;;;;;;;;;;;;5071668;28;19908;-68
2022/05/29 00:22:43;;;;;;;;;;;;;;;;;;5056099;28;19916;-71
2022/05/29 00:25:28;;;;;;;;;;;;;;;;;;5071424;28;19912;-70
2022/05/29 00:28:13;;;;;;;;;;;;;;;;;;5056178;28;19938;-71
2022/05/29 00:30:59;;;;;;;;;;;;;;;;;;5071548;28;20264;-71
2022/05/29 00:33:44;;;;;;;;;;;;;;;;;;5072067;28;19919;-70
2022/05/29 00:36:30;;;;;;;;;;;;;;;;;;5055885;28;19912;-70
2022/05/29 00:39:15;;;;;;;;;;;;;;;;;;5063910;28;19908;-69
2022/05/29 00:42:01;;;;;;;;;;;;;;;;;;5070486;28;19917;-68
2022/05/29 00:44:46;;;;;;;;;;;;;;;;;;5074031;28;20002;-66
2022/05/29 00:47:32;;;;;;;;;;;;;;;;;;5066652;28;20375;-67
2022/05/29 00:50:17;;;;;;;;;;;;;;;;;;5061404;28;20068;-66
2022/05/29 00:53:03;;;;;;;;;;;;;;;;;;5060849;28;19915;-67
2022/05/29 00:55:49;;;;;;;;;;;;;;;;;;5073730;28;19909;-75
2022/05/29 00:58:35;;;;;;;;;;;;;;;;;;5075371;28;19994;-68
2022/05/29 01:01:20;;;;;;;;;;;;;;;;;;5073746;28;19966;-69
2022/05/29 01:04:07;;;;;;;;;;;;;;;;;;5060972;28;19908;-69
2022/05/29 01:06:53;;;;;;;;;;;;;;;;;;5075819;28;19908;-68
2022/05/29 01:09:38;;;;;;;;;;;;;;;;;;5072323;28;19916;-68
2022/05/29 01:12:24;;;;;;;;;;;;;;;;;;5059972;28;20364;-69
2022/05/29 01:15:09;;;;;;;;;;;;;;;;;;5055527;28;20016;-73
2022/05/29 01:17:55;;;;;;;;;;;;;;;;;;5054348;28;20387;-66
2022/05/29 01:20:40;;;;;;;;;;;;;;;;;;5056066;28;19909;-67
2022/05/29 01:23:26;;;;;;;;;;;;;;;;;;5055306;28;19917;-66
2022/05/29 01:26:11;;;;;;;;;;;;;;;;;;5055075;28;19908;-70
2022/05/29 01:28:56;;;;;;;;;;;;;;;;;;5040877;28;19922;-68
2022/05/29 01:31:42;;;;;;;;;;;;;;;;;;5055792;28;19909;-68
2022/05/29 01:34:27;;;;;;;;;;;;;;;;;;5055443;28;20000;-70
2022/05/29 01:37:13;;;;;;;;;;;;;;;;;;5055983;28;19924;-66
2022/05/29 01:39:58;;;;;;;;;;;;;;;;;;5040677;28;19960;-67
2022/05/29 01:42:44;;;;;;;;;;;;;;;;;;5062467;28;20143;-69
2022/05/29 01:45:29;;;;;;;;;;;;;;;;;;5055036;28;19909;-67
2022/05/29 01:48:15;;;;;;;;;;;;;;;;;;5055068;28;19919;-67
2022/05/29 01:51:00;;;;;;;;;;;;;;;;;;5055457;28;19913;-75
2022/05/29 01:53:46;;;;;;;;;;;;;;;;;;5054890;28;19909;-71
2022/05/29 01:56:31;;;;;;;;;;;;;;;;;;5039638;28;19991;-69
2022/05/29 01:59:16;;;;;;;;;;;;;;;;;;5054663;28;19912;-69
2022/05/29 02:02:02;;;;;;;;;;;;;;;;;;5054750;28;20022;-69
2022/05/29 02:04:47;;;;;;;;;;;;;;;;;;5055339;28;19908;-70
2022/05/29 02:07:48;;;;;;;;;;;;;;;;;;5046448;28;19909;-69
2022/05/29 02:10:34;;;;;;;;;;;;;;;;;;5059359;28;19921;-65
2022/05/29 02:13:19;;;;;;;;;;;;;;;;;;5076735;28;20153;-71
2022/05/29 02:16:04;;;;;;;;;;;;;;;;;;5078748;28;19912;-70
2022/05/29 02:18:50;;;;;;;;;;;;;;;;;;5074114;28;19908;-71
2022/05/29 02:21:36;;;;;;;;;;;;;;;;;;5073590;28;20390;-69
2022/05/29 02:24:21;;;;;;;;;;;;;;;;;;5073466;28;20253;-70
2022/05/29 02:27:06;;;;;;;;;;;;;;;;;;5073547;28;19908;-68
2022/05/29 02:29:52;;;;;;;;;;;;;;;;;;5089594;28;19908;-71
2022/05/29 02:32:37;;;;;;;;;;;;;;;;;;5089883;28;20328;-70
2022/05/29 02:35:23;;;;;;;;;;;;;;;;;;5060565;28;19951;-70
2022/05/29 02:38:08;;;;;;;;;;;;;;;;;;5074633;28;19909;-70
2022/05/29 02:40:54;;;;;;;;;;;;;;;;;;5074175;28;20275;-71
2022/05/29 02:43:39;;;;;;;;;;;;;;;;;;5086138;28;19930;-71
2022/05/29 02:46:25;;;;;;;;;;;;;;;;;;5086263;28;19915;-70
2022/05/29 02:49:10;;;;;;;;;;;;;;;;;;5058782;28;19909;-66
2022/05/29 02:51:56;;;;;;;;;;;;;;;;;;5084029;28;19958;-68
2022/05/29 02:54:41;;;;;;;;;;;;;;;;;;5093046;28;19908;-66
2022/05/29 02:57:27;;;;;;;;;;;;;;;;;;5093496;28;19912;-67
2022/05/29 03:00:13;;;;;;;;;;;;;;;;;;5079239;28;20357;-68
2022/05/29 03:02:58;;;;;;;;;;;;;;;;;;5058278;28;19917;-68
2022/05/29 03:05:44;;;;;;;;;;;;;;;;;;5073876;28;20427;-69
2022/05/29 03:08:29;;;;;;;;;;;;;;;;;;5093307;28;19946;-75
2022/05/29 03:11:14;;;;;;;;;;;;;;;;;;5078270;28;20298;-75
2022/05/29 03:14:00;;;;;;;;;;;;;;;;;;5082723;28;19916;-75
2022/05/29 03:16:45;;;;;;;;;;;;;;;;;;5079638;28;19942;-75
2022/05/29 03:19:31;;;;;;;;;;;;;;;;;;5101441;28;19947;-75
2022/05/29 03:22:16;;;;;;;;;;;;;;;;;;5080571;28;20021;-70
2022/05/29 03:25:02;;;;;;;;;;;;;;;;;;5092555;28;20041;-71
2022/05/29 03:27:47;;;;;;;;;;;;;;;;;;5079466;28;20260;-75
2022/05/29 03:30:33;;;;;;;;;;;;;;;;;;5093173;28;19908;-76
2022/05/29 03:33:18;;;;;;;;;;;;;;;;;;5093895;28;19908;-76
2022/05/29 03:36:03;;;;;;;;;;;;;;;;;;5081793;28;19951;-76
2022/05/29 03:38:49;;;;;;;;;;;;;;;;;;5077568;28;19991;-74
2022/05/29 03:41:34;;;;;;;;;;;;;;;;;;5071318;28;19916;-70
2022/05/29 03:44:20;;;;;;;;;;;;;;;;;;5090646;28;19916;-69
2022/05/29 03:47:05;;;;;;;;;;;;;;;;;;5088851;28;20381;-69
2022/05/29 03:49:51;;;;;;;;;;;;;;;;;;5084901;28;19904;-70
2022/05/29 03:52:36;;;;;;;;;;;;;;;;;;5096192;28;19986;-68
2022/05/29 03:55:24;;;;;;;;;;;;;;;;;;5092695;28;19908;-69
2022/05/29 03:58:09;;;;;;;;;;;;;;;;;;5080462;28;19998;-71
2022/05/29 04:00:55;;;;;;;;;;;;;;;;;;5093365;28;19912;-69
2022/05/29 04:03:40;;;;;;;;;;;;;;;;;;5094076;28;19939;-66
2022/05/29 04:06:25;;;;;;;;;;;;;;;;;;5093318;28;19915;-67
2022/05/29 04:12:15;;;;;;;;;;;;;;;;;;5075040;28;19923;-67
2022/05/29 04:15:00;;;;;;;;;;;;;;;;;;5077316;28;19929;-67
2022/05/29 04:17:46;;;;;;;;;;;;;;;;;;5089441;28;19947;-75
2022/05/29 04:20:31;;;;;;;;;;;;;;;;;;5097387;28;20362;-70
2022/05/29 04:23:17;;;;;;;;;;;;;;;;;;5105338;28;19916;-72
2022/05/29 04:26:02;;;;;;;;;;;;;;;;;;5097106;28;19908;-72
2022/05/29 04:28:48;;;;;;;;;;;;;;;;;;5083305;28;20366;-71
2022/05/29 04:31:33;;;;;;;;;;;;;;;;;;5095926;28;20319;-71
2022/05/29 04:34:19;;;;;;;;;;;;;;;;;;5082500;28;19920;-71
2022/05/29 04:37:04;;;;;;;;;;;;;;;;;;5091337;28;20247;-70
2022/05/29 04:39:49;;;;;;;;;;;;;;;;;;5075046;28;19909;-69
2022/05/29 04:42:35;;;;;;;;;;;;;;;;;;5079525;28;19920;-69
2022/05/29 04:45:20;;;;;;;;;;;;;;;;;;5091583;28;19947;-69
2022/05/29 04:48:06;;;;;;;;;;;;;;;;;;5084399;28;19916;-69
2022/05/29 04:50:51;;;;;;;;;;;;;;;;;;5096962;28;19912;-68
2022/05/29 04:53:37;;;;;;;;;;;;;;;;;;5098533;28;19940;-69
2022/05/29 04:56:23;;;;;;;;;;;;;;;;;;5085888;28;19915;-69
2022/05/29 04:59:08;;;;;;;;;;;;;;;;;;5095404;28;19943;-68
2022/05/29 05:01:55;;;;;;;;;;;;;;;;;;5094313;28;20371;-69
2022/05/29 05:04:41;;;;;;;;;;;;;;;;;;5076509;28;20401;-70
2022/05/29 05:07:26;;;;;;;;;;;;;;;;;;5088247;28;19915;-70
2022/05/29 05:10:11;;;;;;;;;;;;;;;;;;5091920;28;19978;-70
2022/05/29 05:12:57;;;;;;;;;;;;;;;;;;5089285;28;19912;-68
2022/05/29 05:15:43;;;;;;;;;;;;;;;;;;5091675;28;19912;-69
2022/05/29 05:18:28;;;;;;;;;;;;;;;;;;5093213;28;20011;-71
2022/05/29 05:21:13;;;;;;;;;;;;;;;;;;5093867;28;20321;-71
2022/05/29 05:23:59;;;;;;;;;;;;;;;;;;5093154;28;19919;-70
2022/05/29 05:26:44;;;;;;;;;;;;;;;;;;5098605;28;20127;-70
2022/05/29 05:29:30;;;;;;;;;;;;;;;;;;5093066;28;19961;-70
2022/05/29 05:32:15;;;;;;;;;;;;;;;;;;5091874;28;20423;-67
2022/05/29 05:35:03;;;;;;;;;;;;;;;;;;5091687;28;19912;-71
2022/05/29 05:37:52;;;;;;;;;;;;;;;;;;5085020;28;20366;-71
2022/05/29 05:40:37;;;;;;;;;;;;;;;;;;5091632;28;20424;-69
2022/05/29 05:43:22;;;;;;;;;;;;;;;;;;5091073;28;19916;-69
2022/05/29 05:46:08;;;;;;;;;;;;;;;;;;5089982;28;19908;-73
2022/05/29 05:48:53;;;;;;;;;;;;;;;;;;5092041;28;19995;-70
2022/05/29 05:51:39;;;;;;;;;;;;;;;;;;5085450;28;19934;-67
2022/05/29 05:54:24;;;;;;;;;;;;;;;;;;5085776;28;19916;-67
2022/05/29 05:57:10;;;;;;;;;;;;;;;;;;5082405;28;20384;-66
2022/05/29 05:59:55;;;;;;;;;;;;;;;;;;5078301;28;20378;-65
2022/05/29 06:02:41;;;;;;;;;;;;;;;;;;5073093;28;19917;-66
2022/05/29 06:05:26;;;;;;;;;;;;;;;;;;5075432;28;20374;-66
2022/05/29 06:08:12;;;;;;;;;;;;;;;;;;5073064;28;19908;-66
2022/05/29 06:10:57;;;;;;;;;;;;;;;;;;5052518;28;19921;-65
2022/05/29 06:13:43;;;;;;;;;;;;;;;;;;5040714;28;19909;-70
2022/05/29 06:16:28;;;;;;;;;;;;;;;;;;5054532;28;20393;-69
2022/05/29 06:19:14;;;;;;;;;;;;;;;;;;5033538;28;19912;-70
2022/05/29 06:22:00;;;;;;;;;;;;;;;;;;5039596;28;19921;-69
2022/05/29 06:24:46;;;;;;;;;;;;;;;;;;5052785;28;19916;-71
2022/05/29 06:27:31;;;;;;;;;;;;;;;;;;5030741;28;19919;-68
2022/05/29 06:30:17;;;;;;;;;;;;;;;;;;5059815;28;19904;-71
2022/05/29 06:33:02;;;;;;;;;;;;;;;;;;5061409;28;19912;-71
2022/05/29 06:35:48;;;;;;;;;;;;;;;;;;5070930;28;19947;-71
2022/05/29 06:38:33;;;;;;;;;;;;;;;;;;5073324;28;19909;-58
2022/05/29 06:41:20;;;;;;;;;;;;;;;;;;5053748;28;19943;-57
2022/05/29 06:44:05;;;;;;;;;;;;;;;;;;5052555;28;19912;-57
2022/05/29 06:46:51;;;;;;;;;;;;;;;;;;5066307;28;19938;-63
2022/05/29 06:49:36;;;;;;;;;;;;;;;;;;5068111;28;19912;-59
2022/05/29 06:52:22;;;;;;;;;;;;;;;;;;5070668;28;19908;-56
2022/05/29 06:55:08;;;;;;;;;;;;;;;;;;5066040;28;19916;-58
2022/05/29 06:57:53;;;;;;;;;;;;;;;;;;5070094;28;19916;-55
2022/05/29 07:06:59;;;;;;;;;;;;;;;;;;5065633;28;20296;-69
2022/05/29 07:09:44;;;;;;;;;;;;;;;;;;5059891;28;20268;-68
2022/05/29 07:12:31;;;;;;;;;;;;;;;;;;5069616;28;20015;-69
2022/05/29 07:15:18;;;;;;;;;;;;;;;;;;5072683;28;19916;-69
2022/05/29 07:18:03;;;;;;;;;;;;;;;;;;5076366;28;19908;-70
2022/05/29 07:20:49;;;;;;;;;;;;;;;;;;5072929;28;19912;-71
2022/05/29 07:23:34;;;;;;;;;;;;;;;;;;5067586;28;20442;-71
2022/05/29 07:26:20;;;;;;;;;;;;;;;;;;5036905;28;19916;-70
2022/05/29 07:29:05;;;;;;;;;;;;;;;;;;5071247;28;19909;-69
2022/05/29 07:31:51;;;;;;;;;;;;;;;;;;5040828;28;19936;-70
2022/05/29 07:34:36;;;;;;;;;;;;;;;;;;5070106;28;20240;-70
2022/05/29 07:37:22;;;;;;;;;;;;;;;;;;5072389;28;19915;-70
2022/05/29 07:40:07;;;;;;;;;;;;;;;;;;5094251;28;20010;-68
2022/05/29 07:45:57;;;;;;;;;;;;;;;;;;5087568;28;19916;-69
2022/05/29 07:48:42;;;;;;;;;;;;;;;;;;5079350;28;20019;-68
2022/05/29 07:51:28;;;;;;;;;;;;;;;;;;5082030;28;20295;-69
2022/05/29 07:54:13;;;;;;;;;;;;;;;;;;5092579;28;19915;-69
2022/05/29 07:56:59;;;;;;;;;;;;;;;;;;5093553;28;20305;-69
2022/05/29 07:59:44;;;;;;;;;;;;;;;;;;5079978;28;20011;-71
2022/05/29 08:02:34;;;;;;;;;;;;;;;;;;5078998;28;19916;-68
2022/05/29 08:05:21;;;;;;;;;;;;;;;;;;5080570;28;20333;-67
2022/05/29 08:08:08;;;;;;;;;;;;;;;;;;5083518;28;20343;-67
2022/05/29 08:10:54;;;;;;;;;;;;;;;;;;5092564;28;19923;-67
2022/05/29 08:13:40;;;;;;;;;;;;;;;;;;5081454;28;19909;-68
2022/05/29 08:16:26;;;;;;;;;;;;;;;;;;5082830;28;19909;-67
2022/05/29 08:19:11;;;;;;;;;;;;;;;;;;5094069;28;19908;-67
2022/05/29 08:21:56;;;;;;;;;;;;;;;;;;5080466;28;19969;-75
2022/05/29 08:30:54;;;;;;;;;;;;;;;;;;5077737;28;19912;-75
2022/05/29 08:33:39;;;;;;;;;;;;;;;;;;5093642;28;19908;-74
2022/05/29 08:36:24;;;;;;;;;;;;;;;;;;5092622;28;19916;-66
2022/05/29 08:39:10;;;;;;;;;;;;;;;;;;5100531;28;19954;-69
2022/05/29 08:41:55;;;;;;;;;;;;;;;;;;5093555;28;19916;-68
2022/05/29 08:44:42;;;;;;;;;;;;;;;;;;5081570;28;19916;-69
2022/05/29 08:47:27;;;;;;;;;;;;;;;;;;5090379;28;20112;-69
2022/05/29 08:50:12;;;;;;;;;;;;;;;;;;5078365;28;19908;-68
2022/05/29 08:52:58;;;;;;;;;;;;;;;;;;5078509;28;19908;-69
2022/05/29 08:55:45;;;;;;;;;;;;;;;;;;5092091;28;19970;-71
2022/05/29 08:58:30;;;;;;;;;;;;;;;;;;5093853;28;19923;-69
2022/05/29 09:01:16;;;;;;;;;;;;;;;;;;5092200;28;19969;-70
2022/05/29 09:04:01;;;;;;;;;;;;;;;;;;5093543;28;20399;-68
2022/05/29 09:06:47;;;;;;;;;;;;;;;;;;5083891;28;19970;-68
2022/05/29 09:09:32;;;;;;;;;;;;;;;;;;5091342;27;20947;-70
2022/05/29 09:12:18;;;;;;;;;;;;;;;;;;5100816;27;19915;-70
2022/05/29 09:15:03;;;;;;;;;;;;;;;;;;5079290;28;19908;-70
2022/05/29 09:17:49;;;;;;;;;;;;;;;;;;5091895;28;19908;-76
2022/05/29 09:20:34;;;;;;;;;;;;;;;;;;5087645;28;19934;-75
2022/05/29 09:23:19;;;;;;;;;;;;;;;;;;5081521;28;19916;-75
2022/05/29 09:26:06;;;;;;;;;;;;;;;;;;5096620;27;19995;-75
2022/05/29 09:28:51;;;;;;;;;;;;;;;;;;5084405;28;19908;-76
2022/05/29 09:31:37;;;;;;;;;;;;;;;;;;5081612;28;19908;-68
2022/05/29 09:34:22;;;;;;;;;;;;;;;;;;5096663;27;19908;-67
2022/05/29 09:37:08;;;;;;;;;;;;;;;;;;5091356;28;19953;-68
2022/05/29 09:39:53;;;;;;;;;;;;;;;;;;5095439;28;20167;-67
2022/05/29 09:42:39;;;;;;;;;;;;;;;;;;5102622;28;19978;-67
2022/05/29 09:45:24;;;;;;;;;;;;;;;;;;5091415;27;19935;-68
2022/05/29 09:51:14;;;;;;;;;;;;;;;;;;5079928;28;19908;-78
2022/05/29 09:53:59;;;;;;;;;;;;;;;;;;5094819;28;19908;-70
2022/05/29 09:56:46;;;;;;;;;;;;;;;;;;5096002;27;19912;-70
2022/05/29 09:59:31;;;;;;;;;;;;;;;;;;5090579;28;19916;-68
2022/05/29 10:02:17;;;;;;;;;;;;;;;;;;5089155;28;20290;-69
2022/05/29 10:05:02;;;;;;;;;;;;;;;;;;5074565;28;19909;-69
2022/05/29 10:07:48;;;;;;;;;;;;;;;;;;5073191;28;19995;-70
2022/05/29 10:10:33;;;;;;;;;;;;;;;;;;5066037;28;20012;-67
2022/05/29 10:13:18;;;;;;;;;;;;;;;;;;5076640;28;19908;-66
2022/05/29 10:16:04;;;;;;;;;;;;;;;;;;5069374;28;20142;-66
2022/05/29 10:18:49;;;;;;;;;;;;;;;;;;5064843;28;20295;-66
2022/05/29 10:21:35;;;;;;;;;;;;;;;;;;5080671;28;19917;-66
2022/05/29 10:24:20;;;;;;;;;;;;;;;;;;5071875;28;19915;-64
2022/05/29 10:27:06;;;;;;;;;;;;;;;;;;5081884;28;19999;-71
2022/05/29 10:29:51;;;;;;;;;;;;;;;;;;5072356;28;19979;-70
2022/05/29 10:32:37;;;;;;;;;;;;;;;;;;5067964;28;20307;-71
2022/05/29 10:35:22;;;;;;;;;;;;;;;;;;5056085;28;19915;-71
2022/05/29 10:38:08;;;;;;;;;;;;;;;;;;5089143;28;19915;-71
2022/05/29 10:40:53;;;;;;;;;;;;;;;;;;5094948;27;20275;-70
2022/05/29 10:43:39;;;;;;;;;;;;;;;;;;5080333;28;20414;-71
2022/05/29 10:46:24;;;;;;;;;;;;;;;;;;5092962;28;20165;-70
2022/05/29 10:49:10;;;;;;;;;;;;;;;;;;5076559;28;19909;-71
2022/05/29 10:51:55;;;;;;;;;;;;;;;;;;5085675;28;19912;-70
2022/05/29 10:54:41;;;;;;;;;;;;;;;;;;5091104;28;19912;-69
2022/05/29 10:57:27;;;;;;;;;;;;;;;;;;5087959;28;20011;-69
2022/05/29 11:00:12;;;;;;;;;;;;;;;;;;5082876;28;19965;-70
2022/05/29 11:06:02;;;;;;;;;;;;;;;;;;5090359;28;19919;-78
2022/05/29 11:08:47;;;;;;;;;;;;;;;;;;5093191;27;19953;-71
2022/05/29 11:11:33;;;;;;;;;;;;;;;;;;5071924;28;20423;-59
2022/05/29 11:14:18;;;;;;;;;;;;;;;;;;5071885;28;19912;-63
2022/05/29 11:17:04;;;;;;;;;;;;;;;;;;5052392;28;19921;-73
2022/05/29 11:19:49;;;;;;;;;;;;;;;;;;5078822;28;19947;-73
2022/05/29 11:22:34;;;;;;;;;;;;;;;;;;5059345;28;19921;-65
2022/05/29 11:25:20;;;;;;;;;;;;;;;;;;5058233;28;20005;-70
2022/05/29 11:28:07;;;;;;;;;;;;;;;;;;5043228;28;19909;-72
2022/05/29 11:30:52;;;;;;;;;;;;;;;;;;5065529;28;20367;-70
2022/05/29 11:33:38;;;;;;;;;;;;;;;;;;5065988;28;20313;-70
2022/05/29 11:36:23;;;;;;;;;;;;;;;;;;5068461;28;19945;-68
2022/05/29 11:39:08;;;;;;;;;;;;;;;;;;5073477;28;19909;-70
2022/05/29 11:41:54;;;;;;;;;;;;;;;;;;5073500;28;19952;-72
2022/05/29 11:44:40;;;;;;;;;;;;;;;;;;5072968;28;20279;-72
2022/05/29 11:53:34;;;;;;;;;;;;;;;;;;5072251;28;19913;-70
2022/05/29 11:56:19;;;;;;;;;;;;;;;;;;5057649;28;20306;-70
2022/05/29 11:59:04;;;;;;;;;;;;;;;;;;5057734;28;19956;-68
2022/05/29 12:01:50;;;;;;;;;;;;;;;;;;5073223;28;19913;-70
2022/05/29 12:04:36;;;;;;;;;;;;;;;;;;5073245;28;19916;-70
2022/05/29 12:07:21;;;;;;;;;;;;;;;;;;5072271;28;19915;-71
2022/05/29 12:10:07;;;;;;;;;;;;;;;;;;5073108;28;19921;-70
2022/05/29 12:12:52;;;;;;;;;;;;;;;;;;5071478;28;19909;-71
2022/05/29 12:15:38;;;;;;;;;;;;;;;;;;5064589;28;19915;-71
2022/05/29 12:18:25;;;;;;;;;;;;;;;;;;5057884;28;19909;-74
2022/05/29 12:21:11;;;;;;;;;;;;;;;;;;5072897;28;19951;-73
2022/05/29 12:23:57;;;;;;;;;;;;;;;;;;5076213;28;20362;-73
2022/05/29 12:26:42;;;;;;;;;;;;;;;;;;5070940;28;20313;-73
2022/05/29 12:29:28;;;;;;;;;;;;;;;;;;5071343;28;20387;-73
2022/05/29 12:32:14;;;;;;;;;;;;;;;;;;5071256;28;19909;-73
2022/05/29 12:34:59;;;;;;;;;;;;;;;;;;5057342;28;20236;-68
2022/05/29 12:37:45;;;;;;;;;;;;;;;;;;5045643;28;19912;-70
2022/05/29 12:40:30;;;;;;;;;;;;;;;;;;5074746;28;19909;-69
2022/05/29 12:43:15;;;;;;;;;;;;;;;;;;5074963;28;19960;-70
2022/05/29 12:46:01;;;;;;;;;;;;;;;;;;5070482;28;19908;-70
2022/05/29 12:48:46;;;;;;;;;;;;;;;;;;5060552;28;19909;-71
2022/05/29 12:51:32;;;;;;;;;;;;;;;;;;5075033;28;20390;-71
2022/05/29 12:54:18;;;;;;;;;;;;;;;;;;5079247;28;19912;-68
2022/05/29 12:57:03;;;;;;;;;;;;;;;;;;5068347;28;19909;-69
2022/05/29 12:59:48;;;;;;;;;;;;;;;;;;5060229;28;20419;-70
2022/05/29 13:02:34;;;;;;;;;;;;;;;;;;5060402;28;19962;-70
2022/05/29 13:05:19;;;;;;;;;;;;;;;;;;5075802;28;20287;-68
2022/05/29 13:08:05;;;;;;;;;;;;;;;;;;5074884;28;19912;-67
2022/05/29 13:10:50;;;;;;;;;;;;;;;;;;5072378;28;20287;-67
2022/05/29 13:13:37;;;;;;;;;;;;;;;;;;5084416;28;19908;-69
2022/05/29 13:16:23;;;;;;;;;;;;;;;;;;5085130;28;19908;-70
2022/05/29 13:19:14;;;;;;;;;;;;;;;;;;5095744;28;20304;-70
2022/05/29 13:22:00;;;;;;;;;;;;;;;;;;5069859;28;19970;-70
2022/05/29 13:24:45;;;;;;;;;;;;;;;;;;5096299;28;19959;-69
2022/05/29 13:27:31;;;;;;;;;;;;;;;;;;5102964;28;19912;-70
2022/05/29 13:30:16;;;;;;;;;;;;;;;;;;5081799;28;19909;-69
2022/05/29 13:33:02;;;;;;;;;;;;;;;;;;5096134;28;19912;-70
2022/05/29 13:35:47;;;;;;;;;;;;;;;;;;5081670;28;19990;-70
2022/05/29 13:38:33;;;;;;;;;;;;;;;;;;5095317;28;19909;-69
2022/05/29 13:41:19;;;;;;;;;;;;;;;;;;5082885;28;19915;-69
2022/05/29 13:44:04;;;;;;;;;;;;;;;;;;5095704;28;19998;-68
2022/05/29 13:46:49;;;;;;;;;;;;;;;;;;5090563;28;20259;-69
2022/05/29 13:49:35;;;;;;;;;;;;;;;;;;5081753;28;20254;-68
2022/05/29 13:52:20;;;;;;;;;;;;;;;;;;5080458;28;19912;-70
2022/05/29 13:55:06;;;;;;;;;;;;;;;;;;5095303;28;19998;-71
2022/05/29 14:03:59;;;;;;;;;;;;;;;;;;5094032;28;19947;-69
2022/05/29 14:06:45;;;;;;;;;;;;;;;;;;5081442;28;20444;-70
2022/05/29 14:09:30;;;;;;;;;;;;;;;;;;5094642;28;19908;-72
2022/05/29 14:12:17;;;;;;;;;;;;;;;;;;5094895;28;20299;-68
2022/05/29 14:15:02;;;;;;;;;;;;;;;;;;5078141;28;19912;-69
2022/05/29 14:17:48;;;;;;;;;;;;;;;;;;5089941;28;19908;-69
2022/05/29 14:20:33;;;;;;;;;;;;;;;;;;5094711;28;19954;-69
2022/05/29 14:23:20;;;;;;;;;;;;;;;;;;5093302;28;19916;-70
2022/05/29 14:26:06;;;;;;;;;;;;;;;;;;5080249;28;19970;-69
2022/05/29 14:28:51;;;;;;;;;;;;;;;;;;5081471;28;20290;-69
2022/05/29 14:31:37;;;;;;;;;;;;;;;;;;5086123;28;19908;-69
2022/05/29 14:34:22;;;;;;;;;;;;;;;;;;5080033;28;19912;-69
2022/05/29 14:37:08;;;;;;;;;;;;;;;;;;5090505;28;20373;-70
2022/05/29 14:39:53;;;;;;;;;;;;;;;;;;5094432;28;19908;-70
2022/05/29 14:42:39;;;;;;;;;;;;;;;;;;5094147;28;19938;-70
2022/05/29 14:45:26;;;;;;;;;;;;;;;;;;5088730;28;19923;-73
2022/05/29 14:48:12;;;;;;;;;;;;;;;;;;5082460;28;19959;-69
2022/05/29 14:50:57;;;;;;;;;;;;;;;;;;5079964;28;20270;-69
2022/05/29 14:53:42;;;;;;;;;;;;;;;;;;5080275;28;20415;-68
2022/05/29 14:56:28;;;;;;;;;;;;;;;;;;5079963;28;19908;-69
2022/05/29 14:59:14;;;;;;;;;;;;;;;;;;5094552;28;19945;-69
2022/05/29 15:02:00;;;;;;;;;;;;;;;;;;5098794;28;20000;-70
2022/05/29 15:04:45;;;;;;;;;;;;;;;;;;5081314;28;19922;-71
2022/05/29 15:10:35;;;;;;;;;;;;;;;;;;5092949;28;19924;-68
2022/05/29 15:13:21;;;;;;;;;;;;;;;;;;5080212;28;19908;-67
2022/05/29 15:16:06;;;;;;;;;;;;;;;;;;5082323;28;19909;-67
2022/05/29 15:18:52;;;;;;;;;;;;;;;;;;5094164;28;19916;-67
2022/05/29 15:24:41;;;;;;;;;;;;;;;;;;5093378;28;19957;-68
2022/05/29 15:27:27;;;;;;;;;;;;;;;;;;5079369;28;19909;-68
2022/05/29 15:30:13;;;;;;;;;;;;;;;;;;5092867;28;20286;-68
2022/05/29 15:32:58;;;;;;;;;;;;;;;;;;5093842;28;19909;-66
2022/05/29 15:35:43;;;;;;;;;;;;;;;;;;5086392;28;20223;-67
2022/05/29 15:38:29;;;;;;;;;;;;;;;;;;5093857;28;19908;-67
2022/05/29 15:41:14;;;;;;;;;;;;;;;;;;5081650;28;19918;-70
2022/05/29 15:44:01;;;;;;;;;;;;;;;;;;5093929;28;20270;-70
2022/05/29 15:46:51;;;;;;;;;;;;;;;;;;5088871;28;19908;-69
2022/05/29 15:49:36;;;;;;;;;;;;;;;;;;5080060;28;19968;-70
2022/05/29 15:52:21;;;;;;;;;;;;;;;;;;5092390;28;19999;-69
2022/05/29 15:55:07;;;;;;;;;;;;;;;;;;5092511;28;19908;-70
2022/05/29 15:57:52;;;;;;;;;;;;;;;;;;5078897;28;20324;-70
2022/05/29 16:00:38;;;;;;;;;;;;;;;;;;5093907;28;20333;-67
2022/05/29 16:03:23;;;;;;;;;;;;;;;;;;5080160;28;19924;-66
2022/05/29 16:06:09;;;;;;;;;;;;;;;;;;5099197;28;20119;-67
2022/05/29 16:08:54;;;;;;;;;;;;;;;;;;5094068;28;19951;-67
2022/05/29 16:11:39;;;;;;;;;;;;;;;;;;5079205;28;19920;-67
2022/05/29 16:14:26;;;;;;;;;;;;;;;;;;5091844;28;19912;-67
2022/05/29 16:17:12;;;;;;;;;;;;;;;;;;5083407;28;20416;-69
2022/05/29 16:19:57;;;;;;;;;;;;;;;;;;5092011;28;19909;-68
2022/05/29 16:22:43;;;;;;;;;;;;;;;;;;5093204;28;20083;-69
2022/05/29 16:25:29;;;;;;;;;;;;;;;;;;5079957;28;19914;-69
2022/05/29 16:28:14;;;;;;;;;;;;;;;;;;5093214;28;19909;-69
2022/05/29 16:30:59;;;;;;;;;;;;;;;;;;5091957;28;20343;-68
2022/05/29 16:33:45;;;;;;;;;;;;;;;;;;5079060;28;19912;-68
2022/05/29 16:36:30;;;;;;;;;;;;;;;;;;5091933;28;19947;-68
2022/05/29 16:48:39;;;;;;;;;;;;;;;;;;5019756;28;19915;-68
2022/05/29 16:51:25;;;;;;;;;;;;;;;;;;5077576;28;19961;-67
2022/05/29 16:54:10;;;;;;;;;;;;;;;;;;5092933;28;19908;-67
2022/05/29 16:56:56;;;;;;;;;;;;;;;;;;5092882;28;19915;-69
2022/05/29 16:59:43;;;;;;;;;;;;;;;;;;5078339;28;20347;-71
2022/05/29 17:02:28;;;;;;;;;;;;;;;;;;5091664;28;19916;-69
2022/05/29 17:05:14;;;;;;;;;;;;;;;;;;5091934;28;19909;-69
2022/05/29 17:08:00;;;;;;;;;;;;;;;;;;5091554;28;19996;-69
2022/05/29 17:10:45;;;;;;;;;;;;;;;;;;5100625;28;20141;-67
2022/05/29 17:13:31;;;;;;;;;;;;;;;;;;5080309;28;20341;-70
2022/05/29 17:16:18;;;;;;;;;;;;;;;;;;5082827;28;19909;-70
2022/05/29 17:19:04;;;;;;;;;;;;;;;;;;5093012;28;20040;-69
2022/05/29 17:21:49;;;;;;;;;;;;;;;;;;5091445;28;20003;-70
2022/05/29 17:24:35;;;;;;;;;;;;;;;;;;5091444;28;20028;-69
2022/05/29 17:27:21;;;;;;;;;;;;;;;;;;5094692;28;20351;-69
2022/05/29 17:30:07;;;;;;;;;;;;;;;;;;5096218;28;19909;-72
2022/05/29 17:32:53;;;;;;;;;;;;;;;;;;5096239;28;19908;-70
2022/05/29 17:35:38;;;;;;;;;;;;;;;;;;5083705;28;19947;-70
2022/05/29 17:38:24;;;;;;;;;;;;;;;;;;5096517;28;20405;-70
2022/05/29 17:41:09;;;;;;;;;;;;;;;;;;5084769;28;19947;-69
2022/05/29 17:43:55;;;;;;;;;;;;;;;;;;5099235;28;19920;-69
2022/05/29 17:46:40;;;;;;;;;;;;;;;;;;5089999;28;19915;-70
2022/05/29 17:49:27;;;;;;;;;;;;;;;;;;5095907;28;19954;-67
2022/05/29 17:52:13;;;;;;;;;;;;;;;;;;5094680;28;20359;-71
2022/05/29 17:54:58;;;;;;;;;;;;;;;;;;5095228;28;19915;-70
2022/05/29 17:57:44;;;;;;;;;;;;;;;;;;5095506;28;20355;-70
2022/05/29 18:00:29;;;;;;;;;;;;;;;;;;5095780;28;19915;-69
2022/05/29 18:03:15;;;;;;;;;;;;;;;;;;5082699;28;19965;-70
2022/05/29 18:06:00;;;;;;;;;;;;;;;;;;5094281;28;20248;-72
2022/05/29 18:08:47;;;;;;;;;;;;;;;;;;5095907;28;19915;-67
2022/05/29 18:11:32;;;;;;;;;;;;;;;;;;5095256;28;19920;-68
2022/05/29 18:14:18;;;;;;;;;;;;;;;;;;5102148;28;19904;-68
2022/05/29 18:17:03;;;;;;;;;;;;;;;;;;5084175;28;19908;-68
2022/05/29 18:19:49;;;;;;;;;;;;;;;;;;5095271;28;19908;-67
2022/05/29 18:22:37;;;;;;;;;;;;;;;;;;5094091;28;19916;-67
2022/05/29 18:25:23;;;;;;;;;;;;;;;;;;5081056;28;19908;-70
2022/05/29 18:28:11;;;;;;;;;;;;;;;;;;5094002;28;20332;-70
2022/05/29 18:30:57;;;;;;;;;;;;;;;;;;5093910;28;19963;-69
2022/05/29 18:33:42;;;;;;;;;;;;;;;;;;5080683;28;19908;-70
2022/05/29 18:36:27;;;;;;;;;;;;;;;;;;5094858;28;19914;-71
2022/05/29 18:39:13;;;;;;;;;;;;;;;;;;5094875;28;19971;-69
2022/05/29 18:41:58;;;;;;;;;;;;;;;;;;5094747;28;19951;-69
2022/05/29 18:44:44;;;;;;;;;;;;;;;;;;5083463;28;19978;-70
2022/05/29 18:47:29;;;;;;;;;;;;;;;;;;5096999;28;19908;-69
2022/05/29 18:50:16;;;;;;;;;;;;;;;;;;5093696;28;19975;-68
2022/05/29 18:53:02;;;;;;;;;;;;;;;;;;5080508;28;19914;-70
2022/05/29 18:55:47;;;;;;;;;;;;;;;;;;5093494;28;20366;-70
2022/05/29 18:58:34;;;;;;;;;;;;;;;;;;5094660;28;20346;-70
2022/05/29 19:01:19;;;;;;;;;;;;;;;;;;5094475;28;19959;-68
2022/05/29 19:04:05;;;;;;;;;;;;;;;;;;5079929;28;19931;-67
2022/05/29 19:06:50;;;;;;;;;;;;;;;;;;5082806;28;19909;-74
2022/05/29 19:09:36;;;;;;;;;;;;;;;;;;5079963;28;19998;-73
2022/05/29 19:12:22;;;;;;;;;;;;;;;;;;5094316;28;19960;-73
2022/05/29 19:15:08;;;;;;;;;;;;;;;;;;5077046;28;19908;-73
2022/05/29 19:20:57;;;;;;;;;;;;;;;;;;5093309;28;20199;-71
2022/05/29 19:23:43;;;;;;;;;;;;;;;;;;5079595;28;19916;-68
2022/05/29 19:26:28;;;;;;;;;;;;;;;;;;5079243;28;20315;-65
2022/05/29 19:29:14;;;;;;;;;;;;;;;;;;5092922;28;19915;-66
2022/05/29 19:32:00;;;;;;;;;;;;;;;;;;5079626;28;19909;-67
2022/05/29 19:34:45;;;;;;;;;;;;;;;;;;5093862;28;19912;-67
2022/05/29 19:37:31;;;;;;;;;;;;;;;;;;5094128;28;19912;-67
2022/05/29 19:40:18;;;;;;;;;;;;;;;;;;5092736;28;19909;-73
2022/05/29 19:43:03;;;;;;;;;;;;;;;;;;5080847;28;20282;-69
2022/05/29 19:45:48;;;;;;;;;;;;;;;;;;5088834;28;19995;-69